createdAt,value
2018-04-22T00:00:30.315Z,68.00
2018-04-22T00:02:56.633Z,67.90
2018-04-22T00:05:23.696Z,69.60
2018-04-22T00:07:50.730Z,69.50
2018-04-22T00:10:17.044Z,68.80
2018-04-22T00:12:43.349Z,69.10
2018-04-22T00:15:09.647Z,69.20
2018-04-22T00:17:36.667Z,71.10
2018-04-22T00:20:03.023Z,70.60
2018-04-22T00:22:30.082Z,71.50
2018-04-22T00:24:56.387Z,70.70
2018-04-22T00:27:22.664Z,71.50
2018-04-22T00:29:49.251Z,71.80
2018-04-22T00:32:16.299Z,71.80
2018-04-22T00:34:42.626Z,71.30
2018-04-22T00:37:08.970Z,71.50
2018-04-22T00:39:35.222Z,71.90
2018-04-22T00:42:02.259Z,72.80
2018-04-22T00:44:28.531Z,72.00
2018-04-22T00:46:54.814Z,72.90
2018-04-22T00:49:21.843Z,73.70
2018-04-22T00:51:48.138Z,73.80
2018-04-22T00:54:21.389Z,73.30
2018-04-22T00:56:47.711Z,72.40
2018-04-22T00:59:14.018Z,72.30
2018-04-22T01:01:40.341Z,73.20
2018-04-22T01:04:06.657Z,73.40
2018-04-22T01:06:32.967Z,73.50
2018-04-22T01:08:59.249Z,73.10
2018-04-22T01:11:25.537Z,73.70
2018-04-22T01:13:51.830Z,73.40
2018-04-22T01:16:18.878Z,73.40
2018-04-22T01:18:45.907Z,73.70
2018-04-22T01:21:12.176Z,72.90
2018-04-22T01:23:38.477Z,72.80
2018-04-22T01:26:05.490Z,73.80
2018-04-22T01:28:31.778Z,73.60
2018-04-22T01:30:58.788Z,74.30
2018-04-22T01:33:25.119Z,74.20
2018-04-22T01:35:51.414Z,74.50
2018-04-22T01:38:17.719Z,75.10
2018-04-22T01:40:44.727Z,75.30
2018-04-22T01:43:10.970Z,75.00
2018-04-22T01:45:37.278Z,75.70
2018-04-22T01:48:03.546Z,75.10
2018-04-22T01:50:29.842Z,75.00
2018-04-22T01:52:56.170Z,75.50
2018-04-22T01:55:22.459Z,75.30
2018-04-22T01:57:48.746Z,76.20
2018-04-22T02:00:15.078Z,76.60
2018-04-22T02:02:41.354Z,76.40
2018-04-22T02:05:07.634Z,77.00
2018-04-22T02:07:33.890Z,76.20
2018-04-22T02:10:00.939Z,77.30
2018-04-22T02:12:28.022Z,77.30
2018-04-22T02:14:54.361Z,77.30
2018-04-22T02:17:20.629Z,77.60
2018-04-22T02:19:46.917Z,78.10
2018-04-22T02:22:13.189Z,78.00
2018-04-22T02:24:40.210Z,79.30
2018-04-22T02:27:06.601Z,77.80
2018-04-22T02:29:32.925Z,78.40
2018-04-22T02:31:59.217Z,79.80
2018-04-22T02:34:25.521Z,80.10
2018-04-22T02:36:51.805Z,80.20
2018-04-22T02:39:18.829Z,81.10
2018-04-22T02:41:45.123Z,81.10
2018-04-22T02:44:11.393Z,81.50
2018-04-22T02:46:37.690Z,82.30
2018-04-22T02:49:04.010Z,83.10
2018-04-22T02:51:30.349Z,82.80
2018-04-22T02:53:56.647Z,82.80
2018-04-22T02:56:22.930Z,84.70
2018-04-22T02:58:49.217Z,84.40
2018-04-22T03:01:15.478Z,84.50
2018-04-22T03:03:41.759Z,85.20
2018-04-22T03:06:08.046Z,85.50
2018-04-22T03:08:34.314Z,86.10
2018-04-22T03:11:01.339Z,86.60
2018-04-22T03:13:27.596Z,87.10
2018-04-22T03:15:53.948Z,87.00
2018-04-22T03:18:20.315Z,87.80
2018-04-22T03:20:46.562Z,87.90
2018-04-22T03:23:12.902Z,88.30
2018-04-22T03:25:39.138Z,88.50
2018-04-22T03:28:06.191Z,89.40
2018-04-22T03:30:33.194Z,89.80
2018-04-22T03:32:59.444Z,89.40
2018-04-22T03:35:25.728Z,89.20
2018-04-22T03:37:51.990Z,90.10
2018-04-22T03:40:18.258Z,90.10
2018-04-22T03:42:45.247Z,91.10
2018-04-22T03:45:11.526Z,91.20
2018-04-22T03:47:37.789Z,91.30
2018-04-22T03:50:04.086Z,91.50
2018-04-22T03:52:31.114Z,91.60
2018-04-22T03:54:57.379Z,91.40
2018-04-22T03:57:23.657Z,91.60
2018-04-22T03:59:49.938Z,91.80
2018-04-22T04:02:16.957Z,92.00
2018-04-22T04:04:43.994Z,92.20
2018-04-22T04:07:10.270Z,92.10
2018-04-22T04:09:36.590Z,92.50
2018-04-22T04:12:02.881Z,92.50
2018-04-22T04:14:29.203Z,92.50
2018-04-22T04:16:55.475Z,92.80
2018-04-22T04:22:40.559Z,93.10
2018-04-22T04:28:12.506Z,93.80
2018-04-22T04:30:38.819Z,93.80
2018-04-22T04:33:05.073Z,93.90
2018-04-22T04:35:31.378Z,93.80
2018-04-22T04:37:57.650Z,94.40
2018-04-22T04:40:24.655Z,94.60
2018-04-22T04:42:50.952Z,94.40
2018-04-22T04:45:17.215Z,94.40
2018-04-22T04:47:43.524Z,94.50
2018-04-22T04:50:09.801Z,94.40
2018-04-22T04:52:36.061Z,94.50
2018-04-22T04:55:03.140Z,94.70
2018-04-22T04:57:29.412Z,94.80
2018-04-22T04:59:55.747Z,95.00
2018-04-22T05:02:22.022Z,95.00
2018-04-22T05:04:48.349Z,95.00
2018-04-22T05:07:14.570Z,95.10
2018-04-22T05:09:41.594Z,94.90
2018-04-22T05:12:07.870Z,94.90
2018-04-22T05:14:34.133Z,94.60
2018-04-22T05:17:00.446Z,94.60
2018-04-22T05:19:26.697Z,94.40
2018-04-22T05:21:53.001Z,94.20
2018-04-22T05:24:19.334Z,94.10
2018-04-22T05:26:45.545Z,93.90
2018-04-22T05:29:11.817Z,93.70
2018-04-22T05:31:38.081Z,93.40
2018-04-22T05:34:04.356Z,93.40
2018-04-22T05:36:30.645Z,93.40
2018-04-22T05:38:57.689Z,93.50
2018-04-22T05:41:24.724Z,93.00
2018-04-22T05:43:51.735Z,93.20
2018-04-22T05:46:18.003Z,92.80
2018-04-22T05:48:45.027Z,92.80
2018-04-22T05:51:11.292Z,92.80
2018-04-22T05:53:38.302Z,92.50
2018-04-22T05:56:04.585Z,92.60
2018-04-22T05:58:30.850Z,92.30
2018-04-22T06:00:57.150Z,92.20
2018-04-22T06:03:23.443Z,91.80
2018-04-22T06:05:50.450Z,91.80
2018-04-22T06:08:16.757Z,91.70
2018-04-22T06:10:43.022Z,91.90
2018-04-22T06:13:09.336Z,91.40
2018-04-22T06:15:35.590Z,91.40
2018-04-22T06:18:01.849Z,90.70
2018-04-22T06:20:28.878Z,90.70
2018-04-22T06:22:55.189Z,90.40
2018-04-22T06:25:21.436Z,90.00
2018-04-22T06:27:47.701Z,90.20
2018-04-22T06:30:13.997Z,88.60
2018-04-22T06:32:40.247Z,87.70
2018-04-22T06:35:07.237Z,83.10
2018-04-22T06:37:33.520Z,83.50
2018-04-22T06:40:00.518Z,73.80
2018-04-22T06:42:27.346Z,73.80
2018-04-22T06:44:53.638Z,68.70
2018-04-22T06:47:20.642Z,64.10
2018-04-22T06:49:46.906Z,63.60
2018-04-22T06:52:13.254Z,66.20
2018-04-22T06:54:39.613Z,67.10
2018-04-22T06:57:05.925Z,66.50
2018-04-22T06:59:32.215Z,64.90
2018-04-22T07:01:58.470Z,65.40
2018-04-22T07:04:25.514Z,64.40
2018-04-22T07:06:52.545Z,64.90
2018-04-22T07:09:18.807Z,64.20
2018-04-22T07:11:45.146Z,66.50
2018-04-22T07:14:11.423Z,65.40
2018-04-22T07:16:37.778Z,63.50
2018-04-22T07:19:04.073Z,64.00
2018-04-22T07:21:30.394Z,66.20
2018-04-22T07:23:56.711Z,65.20
2018-04-22T07:26:23.017Z,64.10
2018-04-22T07:28:49.318Z,63.60
2018-04-22T07:31:16.331Z,59.20
2018-04-22T07:33:42.638Z,58.70
2018-04-22T07:36:08.937Z,58.10
2018-04-22T07:38:35.957Z,60.00
2018-04-22T07:41:02.235Z,59.70
2018-04-22T07:43:28.534Z,57.00
2018-04-22T07:45:54.834Z,53.00
2018-04-22T07:48:21.113Z,49.50
2018-04-22T07:50:47.433Z,50.50
2018-04-22T07:53:13.693Z,50.50
2018-04-22T07:55:39.997Z,51.00
2018-04-22T07:58:07.018Z,52.60
2018-04-22T08:00:33.297Z,52.30
2018-04-22T08:02:59.587Z,53.00
2018-04-22T08:05:25.866Z,54.20
2018-04-22T08:07:52.151Z,54.90
2018-04-22T08:10:18.470Z,54.10
2018-04-22T08:12:44.771Z,52.00
2018-04-22T08:15:11.070Z,49.60
2018-04-22T08:17:37.355Z,49.80
2018-04-22T08:20:03.706Z,51.90
2018-04-22T08:22:30.716Z,46.50
2018-04-22T08:24:57.012Z,46.30
2018-04-22T08:27:23.278Z,43.30
2018-04-22T08:29:49.631Z,40.40
2018-04-22T08:32:15.890Z,39.70
2018-04-22T08:34:42.931Z,38.70
2018-04-22T08:37:09.971Z,38.50
2018-04-22T08:39:37.006Z,38.40
2018-04-22T08:42:03.296Z,38.40
2018-04-22T08:44:29.584Z,38.50
2018-04-22T08:46:56.646Z,38.60
2018-04-22T08:49:22.921Z,38.60
2018-04-22T08:51:49.176Z,38.20
2018-04-22T08:54:15.567Z,37.50
2018-04-22T08:56:41.881Z,37.20
2018-04-22T08:59:08.165Z,38.00
2018-04-22T09:01:34.433Z,37.70
2018-04-22T09:04:00.757Z,38.40
2018-04-22T09:06:27.034Z,36.00
2018-04-22T09:08:53.334Z,38.40
2018-04-22T09:11:19.657Z,36.50
2018-04-22T09:13:45.909Z,35.00
2018-04-22T09:16:12.185Z,33.30
2018-04-22T09:18:38.473Z,30.20
2018-04-22T09:21:04.814Z,28.50
2018-04-22T09:23:31.148Z,28.30
2018-04-22T09:25:57.481Z,31.00
2018-04-22T09:28:23.774Z,31.60
2018-04-22T09:30:50.089Z,31.60
2018-04-22T09:33:16.390Z,31.90
2018-04-22T09:35:43.031Z,30.50
2018-04-22T09:38:09.287Z,30.60
2018-04-22T09:40:36.330Z,31.50
2018-04-22T09:43:02.633Z,30.70
2018-04-22T09:45:28.942Z,29.80
2018-04-22T09:47:55.222Z,29.80
2018-04-22T09:50:22.253Z,31.10
2018-04-22T09:52:48.546Z,31.00
2018-04-22T09:55:14.841Z,30.80
2018-04-22T09:57:41.867Z,29.10
2018-04-22T10:00:08.147Z,29.10
2018-04-22T10:02:34.709Z,29.00
2018-04-22T10:05:07.018Z,28.70
2018-04-22T10:07:34.044Z,28.80
2018-04-22T10:10:00.351Z,29.00
2018-04-22T10:12:27.409Z,28.50
2018-04-22T10:14:53.705Z,28.60
2018-04-22T10:17:19.974Z,24.50
2018-04-22T10:19:46.273Z,23.70
2018-04-22T10:22:12.582Z,22.10
2018-04-22T10:24:38.874Z,20.60
2018-04-22T10:27:05.186Z,20.90
2018-04-22T10:29:31.447Z,20.80
2018-04-22T10:31:58.494Z,23.00
2018-04-22T10:34:25.493Z,22.90
2018-04-22T10:36:51.789Z,22.90
2018-04-22T10:39:18.054Z,22.40
2018-04-22T10:41:44.393Z,20.70
2018-04-22T10:44:10.696Z,21.80
2018-04-22T10:46:36.958Z,22.00
2018-04-22T10:49:03.288Z,21.80
2018-04-22T10:51:29.594Z,22.00
2018-04-22T10:53:55.849Z,23.60
2018-04-22T10:56:22.134Z,25.10
2018-04-22T10:58:48.425Z,26.10
2018-04-22T11:01:14.691Z,25.90
2018-04-22T11:03:41.744Z,26.30
2018-04-22T11:06:08.782Z,26.50
2018-04-22T11:08:35.769Z,26.60
2018-04-22T11:11:02.034Z,26.00
2018-04-22T11:13:28.323Z,26.50
2018-04-22T11:15:54.578Z,26.60
2018-04-22T11:18:20.866Z,27.60
2018-04-22T11:20:47.214Z,27.10
2018-04-22T11:23:13.640Z,26.80
2018-04-22T11:25:39.901Z,26.90
2018-04-22T11:28:06.179Z,26.90
2018-04-22T11:30:32.474Z,26.30
2018-04-22T11:32:58.761Z,25.30
2018-04-22T11:35:25.034Z,25.20
2018-04-22T11:37:51.282Z,24.20
2018-04-22T11:40:18.310Z,23.20
2018-04-22T11:42:44.569Z,23.20
2018-04-22T11:45:10.846Z,23.10
2018-04-22T11:47:37.133Z,22.00
2018-04-22T11:50:03.402Z,23.10
2018-04-22T11:52:29.681Z,23.60
2018-04-22T11:54:56.674Z,24.10
2018-04-22T11:57:22.957Z,24.00
2018-04-22T11:59:49.975Z,24.60
2018-04-22T12:02:16.306Z,23.90
2018-04-22T12:04:42.638Z,23.90
2018-04-22T12:07:08.907Z,24.20
2018-04-22T12:09:35.174Z,24.90
2018-04-22T12:12:01.435Z,24.90
2018-04-22T12:14:27.703Z,25.20
2018-04-22T12:16:54.006Z,24.10
2018-04-22T12:19:21.079Z,23.90
2018-04-22T12:21:47.406Z,23.80
2018-04-22T12:24:13.952Z,24.40
2018-04-22T12:26:40.623Z,24.10
2018-04-22T12:29:06.958Z,24.40
2018-04-22T12:31:33.280Z,24.10
2018-04-22T12:33:59.583Z,24.80
2018-04-22T12:36:25.925Z,26.00
2018-04-22T12:38:52.187Z,26.20
2018-04-22T12:41:18.494Z,27.60
2018-04-22T12:43:44.756Z,28.80
2018-04-22T12:46:11.804Z,29.50
2018-04-22T12:48:38.135Z,29.50
2018-04-22T12:51:05.168Z,29.70
2018-04-22T12:53:31.479Z,29.30
2018-04-22T12:55:58.506Z,30.20
2018-04-22T12:58:24.798Z,30.10
2018-04-22T13:00:51.948Z,31.30
2018-04-22T13:03:18.291Z,31.20
2018-04-22T13:05:44.698Z,31.30
2018-04-22T13:08:11.071Z,31.00
2018-04-22T13:10:37.418Z,32.80
2018-04-22T13:13:03.706Z,35.40
2018-04-22T13:15:30.002Z,43.70
2018-04-22T13:17:56.424Z,62.90
2018-04-22T13:20:22.734Z,92.10
2018-04-22T13:22:49.050Z,99.40
2018-04-22T13:25:16.099Z,99.90
2018-04-22T13:27:42.386Z,99.90
2018-04-22T13:30:08.638Z,99.90
2018-04-22T13:32:35.668Z,99.90
2018-04-22T13:35:01.978Z,99.90
2018-04-22T13:37:28.266Z,99.90
2018-04-22T13:39:54.562Z,99.90
2018-04-22T13:42:20.818Z,99.90
2018-04-22T13:44:47.859Z,99.90
2018-04-22T13:47:14.882Z,99.90
2018-04-22T13:49:41.151Z,99.90
2018-04-22T13:52:08.178Z,97.20
2018-04-22T13:54:34.448Z,97.20
2018-04-22T13:57:00.739Z,96.90
2018-04-22T13:59:27.802Z,92.40
2018-04-22T14:01:54.814Z,93.60
2018-04-22T14:04:21.095Z,93.20
2018-04-22T14:06:47.384Z,93.00
2018-04-22T14:09:13.713Z,96.30
2018-04-22T14:11:39.966Z,94.90
2018-04-22T14:14:06.971Z,96.40
2018-04-22T14:16:33.285Z,96.10
2018-04-22T14:18:59.563Z,96.40
2018-04-22T14:21:25.831Z,95.20
2018-04-22T14:23:52.105Z,94.00
2018-04-22T14:26:18.404Z,94.10
2018-04-22T14:28:44.690Z,94.10
2018-04-22T14:31:11.702Z,92.50
2018-04-22T14:33:37.965Z,92.30
2018-04-22T14:36:04.267Z,92.70
2018-04-22T14:38:30.505Z,92.90
2018-04-22T14:40:56.783Z,92.00
2018-04-22T14:43:23.069Z,92.50
2018-04-22T14:46:01.814Z,95.40
2018-04-22T14:48:28.146Z,97.10
2018-04-22T14:50:54.410Z,99.90
2018-04-22T14:53:20.682Z,99.90
2018-04-22T14:55:46.947Z,99.90
2018-04-22T14:58:13.277Z,99.90
2018-04-22T15:00:39.572Z,99.90
2018-04-22T15:03:06.622Z,99.90
2018-04-22T15:05:33.670Z,99.90
2018-04-22T15:07:59.935Z,99.60
2018-04-22T15:10:26.205Z,99.90
2018-04-22T15:12:52.510Z,99.90
2018-04-22T15:15:18.768Z,99.90
2018-04-22T15:17:45.015Z,99.90
2018-04-22T15:20:12.042Z,99.30
2018-04-22T15:22:38.300Z,99.30
2018-04-22T15:25:05.367Z,99.80
2018-04-22T15:27:31.585Z,99.90
2018-04-22T15:29:58.716Z,99.90
2018-04-22T15:32:25.063Z,99.90
2018-04-22T15:34:52.994Z,99.90
2018-04-22T15:37:19.251Z,99.90
2018-04-22T15:39:45.542Z,99.90
2018-04-22T15:42:11.828Z,99.90
2018-04-22T15:44:38.906Z,99.90
2018-04-22T15:47:05.178Z,99.90
2018-04-22T15:49:31.446Z,99.90
2018-04-22T15:51:57.704Z,99.90
2018-04-22T15:54:23.995Z,99.90
2018-04-22T15:56:51.003Z,99.90
2018-04-22T15:59:17.289Z,99.90
2018-04-22T16:01:43.564Z,99.90
2018-04-22T16:04:09.830Z,99.70
2018-04-22T16:06:36.853Z,99.90
2018-04-22T16:09:03.166Z,99.90
2018-04-22T16:11:30.171Z,99.90
2018-04-22T16:13:56.431Z,99.90
2018-04-22T16:16:22.698Z,99.90
2018-04-22T16:18:49.728Z,99.90
2018-04-22T16:21:16.024Z,99.90
2018-04-22T16:23:42.269Z,96.10
2018-04-22T16:26:08.535Z,95.80
2018-04-22T16:28:35.563Z,96.00
2018-04-22T16:31:01.826Z,95.90
2018-04-22T16:33:29.200Z,99.90
2018-04-22T16:35:55.502Z,99.90
2018-04-22T16:38:22.493Z,99.90
2018-04-22T16:40:48.814Z,99.70
2018-04-22T16:43:15.082Z,99.90
2018-04-22T16:45:42.169Z,99.80
2018-04-22T16:48:09.211Z,99.90
2018-04-22T16:50:36.259Z,99.90
2018-04-22T16:53:02.510Z,99.90
2018-04-22T16:55:28.769Z,99.90
2018-04-22T16:57:55.058Z,99.90
2018-04-22T17:00:22.050Z,99.90
2018-04-22T17:02:48.332Z,99.90
2018-04-22T17:05:14.642Z,99.90
2018-04-22T17:07:41.676Z,99.90
2018-04-22T17:10:07.961Z,99.70
2018-04-22T17:12:34.221Z,99.90
2018-04-22T17:15:00.517Z,99.90
2018-04-22T17:17:26.824Z,99.90
2018-04-22T17:19:53.877Z,97.10
2018-04-22T17:22:20.881Z,97.70
2018-04-22T17:24:47.215Z,97.70
2018-04-22T17:27:13.456Z,96.00
2018-04-22T17:29:39.736Z,96.60
2018-04-22T17:32:06.008Z,96.30
2018-04-22T17:34:32.259Z,98.70
2018-04-22T17:36:58.539Z,98.70
2018-04-22T17:39:24.803Z,99.70
2018-04-22T17:41:51.490Z,98.90
2018-04-22T17:44:17.734Z,99.10
2018-04-22T17:46:44.000Z,99.50
2018-04-22T17:49:10.283Z,98.70
2018-04-22T17:51:36.546Z,98.50
2018-04-22T17:54:02.910Z,98.60
2018-04-22T17:56:29.176Z,99.90
2018-04-22T17:58:55.489Z,99.90
2018-04-22T18:01:21.779Z,99.90
2018-04-22T18:03:48.069Z,99.90
2018-04-22T18:06:14.358Z,97.40
2018-04-22T18:08:41.350Z,99.50
2018-04-22T18:11:07.632Z,99.60
2018-04-22T18:13:33.891Z,98.80
2018-04-22T18:16:00.182Z,97.30
2018-04-22T18:18:26.435Z,96.70
2018-04-22T18:20:52.714Z,97.60
2018-04-22T18:23:18.996Z,96.00
2018-04-22T18:25:46.054Z,95.70
2018-04-22T18:28:12.345Z,95.30
2018-04-22T18:30:38.597Z,96.10
2018-04-22T18:33:05.224Z,95.10
2018-04-22T18:35:31.473Z,95.20
2018-04-22T18:37:58.485Z,96.20
2018-04-22T18:40:25.605Z,95.50
2018-04-22T18:42:51.906Z,95.20
2018-04-22T18:45:18.200Z,94.90
2018-04-22T18:47:44.469Z,94.80
2018-04-22T18:50:10.775Z,95.10
2018-04-22T18:52:37.782Z,94.20
2018-04-22T18:55:04.059Z,94.20
2018-04-22T18:57:31.129Z,95.20
2018-04-22T18:59:57.398Z,95.10
2018-04-22T19:02:23.780Z,94.00
2018-04-22T19:04:50.049Z,95.50
2018-04-22T19:07:16.370Z,98.30
2018-04-22T19:09:42.633Z,97.50
2018-04-22T19:12:08.884Z,97.00
2018-04-22T19:14:36.045Z,94.50
2018-04-22T19:17:03.054Z,92.40
2018-04-22T19:19:30.197Z,91.40
2018-04-22T19:21:56.481Z,91.40
2018-04-22T19:24:22.767Z,91.80
2018-04-22T19:26:49.014Z,92.30
2018-04-22T19:29:15.306Z,94.40
2018-04-22T19:31:41.694Z,92.90
2018-04-22T19:34:08.690Z,92.70
2018-04-22T19:36:34.965Z,92.50
2018-04-22T19:39:02.034Z,97.40
2018-04-22T19:41:28.360Z,97.40
2018-04-22T19:43:54.633Z,98.60
2018-04-22T19:46:20.885Z,98.60
2018-04-22T19:48:48.073Z,96.30
2018-04-22T19:51:15.150Z,95.00
2018-04-22T19:53:41.499Z,95.00
2018-04-22T19:56:07.765Z,95.00
2018-04-22T19:58:34.066Z,95.50
2018-04-22T20:01:00.439Z,96.30
2018-04-22T20:03:26.748Z,93.10
2018-04-22T20:05:54.134Z,90.70
2018-04-22T20:08:20.473Z,90.80
2018-04-22T20:10:46.709Z,91.40
2018-04-22T20:13:13.090Z,91.20
2018-04-22T20:15:40.098Z,93.00
2018-04-22T20:18:06.458Z,92.70
2018-04-22T20:20:32.706Z,94.30
2018-04-22T20:22:59.827Z,92.30
2018-04-22T20:25:26.133Z,92.10
2018-04-22T20:27:52.385Z,91.90
2018-04-22T20:30:18.662Z,96.10
2018-04-22T20:32:44.952Z,93.00
2018-04-22T20:35:11.522Z,95.60
2018-04-22T20:37:37.868Z,92.80
2018-04-22T20:40:04.901Z,92.90
2018-04-22T20:42:31.941Z,93.20
2018-04-22T20:44:58.197Z,93.10
2018-04-22T20:47:24.486Z,91.00
2018-04-22T20:49:51.523Z,89.90
2018-04-22T20:52:17.790Z,89.90
2018-04-22T20:54:44.062Z,89.10
2018-04-22T20:57:10.353Z,89.10
2018-04-22T20:59:36.662Z,87.80
2018-04-22T21:02:03.050Z,85.10
2018-04-22T21:04:29.330Z,85.30
2018-04-22T21:06:56.360Z,86.20
2018-04-22T21:09:22.606Z,85.80
2018-04-22T21:11:49.614Z,85.30
2018-04-22T21:14:15.931Z,85.00
2018-04-22T21:16:42.219Z,85.40
2018-04-22T21:19:09.213Z,85.80
2018-04-22T21:21:35.469Z,85.70
2018-04-22T21:24:01.733Z,91.40
2018-04-22T21:26:28.046Z,89.70
2018-04-22T21:28:55.077Z,90.50
2018-04-22T21:31:21.332Z,90.40
2018-04-22T21:33:48.702Z,91.10
2018-04-22T21:36:14.982Z,91.20
2018-04-22T21:38:41.229Z,93.00
2018-04-22T21:41:07.492Z,92.30
2018-04-22T21:43:33.793Z,92.50
2018-04-22T21:46:00.810Z,91.50
2018-04-22T21:48:27.053Z,91.40
2018-04-22T21:50:53.338Z,90.40
2018-04-22T21:53:19.585Z,90.10
2018-04-22T21:55:45.843Z,88.80
2018-04-22T21:58:12.128Z,89.10
2018-04-22T22:00:38.420Z,87.20
2018-04-22T22:03:05.457Z,87.50
2018-04-22T22:05:31.749Z,87.20
2018-04-22T22:07:58.437Z,90.70
2018-04-22T22:10:25.418Z,90.70
2018-04-22T22:12:51.664Z,90.40
2018-04-22T22:15:17.986Z,92.30
2018-04-22T22:17:44.219Z,93.50
2018-04-22T22:20:10.501Z,95.10
2018-04-22T22:22:37.727Z,96.00
2018-04-22T22:25:04.056Z,96.10
2018-04-22T22:27:30.341Z,95.60
2018-04-22T22:29:56.637Z,96.20
2018-04-22T22:32:23.001Z,96.30
2018-04-22T22:34:49.281Z,97.50
2018-04-22T22:37:15.642Z,96.50
2018-04-22T22:39:42.647Z,99.60
2018-04-22T22:42:08.910Z,99.50
2018-04-22T22:44:35.920Z,99.90
2018-04-22T22:47:02.178Z,99.90
2018-04-22T22:49:28.575Z,99.50
2018-04-22T22:51:54.952Z,99.90
2018-04-22T22:54:21.958Z,99.90
2018-04-22T22:56:48.238Z,99.90
2018-04-22T22:59:15.269Z,99.90
2018-04-22T23:01:41.543Z,99.90
2018-04-22T23:04:07.821Z,99.90
2018-04-22T23:06:34.090Z,99.90
2018-04-22T23:09:00.377Z,99.90
2018-04-22T23:11:27.433Z,99.90
2018-04-22T23:13:53.728Z,99.90
2018-04-22T23:16:20.006Z,99.90
2018-04-22T23:18:46.298Z,99.90
2018-04-22T23:21:12.588Z,99.90
2018-04-22T23:23:38.846Z,99.90
2018-04-22T23:26:05.129Z,99.90
2018-04-22T23:28:32.147Z,99.90
2018-04-22T23:30:58.417Z,99.90
2018-04-22T23:33:24.674Z,99.90
2018-04-22T23:35:50.959Z,99.90
2018-04-22T23:38:17.245Z,99.90
2018-04-22T23:40:43.526Z,99.90
2018-04-22T23:43:10.523Z,99.90
2018-04-22T23:45:36.783Z,99.90
2018-04-22T23:48:03.058Z,98.20
2018-04-22T23:50:29.320Z,96.70
2018-04-22T23:52:55.582Z,96.80
2018-04-22T23:55:22.574Z,98.60
2018-04-22T23:57:48.858Z,98.50
